createdAt,value
2023-01-04T00:00:10.092Z,54.50
2023-01-04T00:01:10.357Z,54.30
2023-01-04T00:02:10.678Z,62.52
2023-01-04T00:03:11.037Z,62.72
2023-01-04T00:04:11.228Z,62.52
2023-01-04T00:05:11.486Z,54.30
2023-01-04T00:06:11.788Z,54.14
2023-01-04T00:07:12.075Z,54.50
2023-01-04T00:08:12.398Z,54.50
2023-01-04T00:09:12.679Z,54.30
2023-01-04T00:10:12.926Z,54.30
2023-01-04T00:11:13.242Z,54.30
2023-01-04T00:12:13.499Z,54.30
2023-01-04T00:13:13.825Z,62.51
2023-01-04T00:14:14.085Z,62.51
2023-01-04T00:15:14.403Z,62.70
2023-01-04T00:16:14.731Z,54.50
2023-01-04T00:17:15.022Z,54.30
2023-01-04T00:18:15.302Z,54.11
2023-01-04T00:19:15.560Z,54.10
2023-01-04T00:20:15.847Z,54.50
2023-01-04T00:21:16.182Z,54.30
2023-01-04T00:22:16.448Z,54.30
2023-01-04T00:23:16.747Z,54.30
2023-01-04T00:24:17.036Z,54.30
2023-01-04T00:25:17.286Z,54.11
2023-01-04T00:26:17.602Z,54.11
2023-01-04T00:27:17.873Z,54.11
2023-01-04T00:28:18.151Z,54.11
2023-01-04T00:29:18.415Z,54.10
2023-01-04T00:30:18.706Z,54.10
2023-01-04T00:31:19.062Z,54.30
2023-01-04T00:32:19.349Z,54.00
2023-01-04T00:33:19.673Z,54.00
2023-01-04T00:34:19.932Z,54.00
2023-01-04T00:35:44.217Z,53.91
2023-01-04T00:36:21.488Z,54.42
2023-01-04T00:37:20.781Z,54.30
2023-01-04T00:38:21.078Z,54.30
2023-01-04T00:39:21.421Z,53.91
2023-01-04T00:40:21.716Z,53.64
2023-01-04T00:41:56.989Z,53.64
2023-01-04T00:42:23.269Z,53.54
2023-01-04T00:43:22.617Z,53.96
2023-01-04T00:44:22.848Z,53.64
2023-01-04T00:45:23.154Z,53.54
2023-01-04T00:46:23.501Z,53.54
2023-01-04T00:47:23.723Z,53.54
2023-01-04T00:48:24.004Z,53.54
2023-01-04T00:49:24.282Z,53.64
2023-01-04T00:50:24.531Z,53.64
2023-01-04T00:51:24.833Z,53.96
2023-01-04T00:52:25.156Z,54.05
2023-01-04T00:53:25.407Z,53.96
2023-01-04T00:54:25.707Z,53.56
2023-01-04T00:55:26.010Z,53.64
2023-01-04T00:56:26.312Z,53.55
2023-01-04T00:57:26.619Z,53.56
2023-01-04T00:58:26.882Z,53.65
2023-01-04T00:59:27.150Z,53.66
2023-01-04T01:00:27.456Z,53.91
2023-01-04T01:01:27.859Z,53.91
2023-01-04T01:02:28.214Z,53.56
2023-01-04T01:03:30.976Z,53.65
2023-01-04T01:04:29.683Z,53.52
2023-01-04T01:05:28.825Z,53.71
2023-01-04T01:06:29.116Z,53.71
2023-01-04T01:07:29.424Z,53.96
2023-01-04T01:08:29.716Z,53.92
2023-01-04T01:09:29.997Z,54.01
2023-01-04T01:10:30.229Z,54.42
2023-01-04T01:11:30.536Z,54.01
2023-01-04T01:12:30.840Z,53.91
2023-01-04T01:13:31.141Z,53.96
2023-01-04T01:14:31.414Z,54.02
2023-01-04T01:15:31.740Z,54.35
2023-01-04T01:16:54.232Z,54.35
2023-01-04T01:17:33.198Z,54.35
2023-01-04T01:18:32.542Z,54.42
2023-01-04T01:19:32.838Z,62.55
2023-01-04T01:20:33.087Z,62.90
2023-01-04T01:21:33.396Z,63.00
2023-01-04T01:22:33.680Z,63.31
2023-01-04T01:23:34.020Z,63.67
2023-01-04T01:24:34.269Z,63.32
2023-01-04T01:25:34.570Z,62.55
2023-01-04T01:26:34.878Z,63.92
2023-01-04T01:27:35.207Z,62.94
2023-01-04T01:28:35.484Z,63.09
2023-01-04T01:29:35.765Z,63.48
2023-01-04T01:30:36.030Z,65.62
2023-01-04T01:31:36.501Z,65.87
2023-01-04T01:32:36.630Z,66.06
2023-01-04T01:33:36.976Z,66.06
2023-01-04T01:34:37.245Z,66.46
2023-01-04T01:35:37.541Z,66.26
2023-01-04T01:36:37.869Z,66.80
2023-01-04T01:37:38.126Z,65.62
2023-01-04T01:38:38.431Z,65.82
2023-01-04T01:39:38.661Z,66.99
2023-01-04T01:40:39.003Z,66.99
2023-01-04T01:41:39.271Z,66.46
2023-01-04T01:42:39.512Z,66.89
2023-01-04T01:43:39.829Z,65.92
2023-01-04T01:44:40.103Z,66.36
2023-01-04T01:45:40.388Z,66.55
2023-01-04T01:46:40.896Z,66.26
2023-01-04T01:47:40.965Z,66.46
2023-01-04T01:48:41.291Z,66.60
2023-01-04T01:49:41.539Z,66.99
2023-01-04T01:50:41.858Z,62.84
2023-01-04T01:51:42.118Z,63.23
2023-01-04T01:52:42.419Z,63.43
2023-01-04T01:53:42.723Z,63.87
2023-01-04T01:54:43.026Z,63.87
2023-01-04T01:55:43.276Z,62.60
2023-01-04T01:56:43.600Z,62.60
2023-01-04T01:57:43.860Z,64.06
2023-01-04T01:58:44.181Z,64.07
2023-01-04T01:59:44.480Z,64.11
2023-01-04T02:00:44.721Z,64.11
2023-01-04T02:01:45.089Z,64.12
2023-01-04T02:02:45.561Z,64.12
2023-01-04T02:03:45.720Z,64.11
2023-01-04T02:04:46.101Z,64.11
2023-01-04T02:05:46.304Z,64.12
2023-01-04T02:06:46.577Z,64.06
2023-01-04T02:07:46.865Z,64.17
2023-01-04T02:08:47.146Z,62.61
2023-01-04T02:09:47.394Z,62.61
2023-01-04T02:10:47.670Z,62.70
2023-01-04T02:11:47.968Z,64.26
2023-01-04T02:12:48.267Z,64.07
2023-01-04T02:13:48.583Z,64.07
2023-01-04T02:14:48.857Z,64.26
2023-01-04T02:15:49.250Z,64.26
2023-01-04T02:16:49.387Z,64.07
2023-01-04T02:17:49.681Z,64.28
2023-01-04T02:18:49.981Z,64.07
2023-01-04T02:19:50.292Z,64.32
2023-01-04T02:20:50.542Z,64.11
2023-01-04T02:21:50.866Z,64.28
2023-01-04T02:22:51.104Z,64.17
2023-01-04T02:23:51.440Z,62.61
2023-01-04T02:24:51.689Z,64.07
2023-01-04T02:25:52.019Z,64.07
2023-01-04T02:26:52.287Z,62.51
2023-01-04T02:27:52.544Z,62.70
2023-01-04T02:28:52.865Z,62.51
2023-01-04T02:29:53.138Z,62.51
2023-01-04T02:30:53.425Z,62.71
2023-01-04T02:31:53.724Z,62.86
2023-01-04T02:32:53.988Z,62.71
2023-01-04T02:33:54.324Z,62.62
2023-01-04T02:34:58.610Z,62.70
2023-01-04T02:35:54.816Z,67.44
2023-01-04T02:36:55.074Z,67.24
2023-01-04T02:37:55.383Z,62.70
2023-01-04T02:38:55.690Z,62.51
2023-01-04T02:39:55.934Z,67.45
2023-01-04T02:40:56.241Z,67.25
2023-01-04T02:41:56.541Z,67.43
2023-01-04T02:42:56.785Z,67.24
2023-01-04T02:43:57.131Z,67.38
2023-01-04T02:44:57.443Z,67.21
2023-01-04T02:45:57.724Z,67.19
2023-01-04T02:46:58.101Z,67.41
2023-01-04T02:47:58.291Z,67.41
2023-01-04T02:48:58.638Z,62.51
2023-01-04T02:50:04.342Z,67.50
2023-01-04T02:51:00.156Z,67.48
2023-01-04T02:51:59.481Z,67.32
2023-01-04T02:52:59.733Z,67.50
2023-01-04T02:54:00.074Z,65.64
2023-01-04T02:55:00.361Z,65.64
2023-01-04T02:56:00.631Z,65.84
2023-01-04T02:57:05.126Z,67.42
2023-01-04T02:58:02.227Z,64.20
2023-01-04T02:59:01.456Z,65.83
2023-01-04T03:00:01.701Z,65.72
2023-01-04T03:01:02.009Z,65.65
2023-01-04T03:02:02.406Z,65.73
2023-01-04T03:03:02.624Z,65.82
2023-01-04T03:04:02.979Z,65.64
2023-01-04T03:05:03.145Z,67.48
2023-01-04T03:06:03.420Z,67.48
2023-01-04T03:07:03.690Z,67.21
2023-01-04T03:08:03.957Z,67.42
2023-01-04T03:09:04.254Z,66.03
2023-01-04T03:10:04.560Z,65.66
2023-01-04T03:11:04.822Z,66.05
2023-01-04T03:12:05.076Z,66.04
2023-01-04T03:13:05.370Z,66.02
2023-01-04T03:14:30.834Z,66.02
2023-01-04T03:15:06.890Z,67.58
2023-01-04T03:16:06.249Z,67.59
2023-01-04T03:17:06.526Z,67.59
2023-01-04T03:18:06.848Z,67.59
2023-01-04T03:19:07.104Z,66.02
2023-01-04T03:20:07.405Z,67.58
2023-01-04T03:21:07.735Z,67.59
2023-01-04T03:22:07.982Z,67.20
2023-01-04T03:23:08.303Z,67.19
2023-01-04T03:24:08.587Z,67.59
2023-01-04T03:25:08.841Z,67.19
2023-01-04T03:26:09.163Z,67.59
2023-01-04T03:27:09.405Z,67.19
2023-01-04T03:28:09.732Z,67.58
2023-01-04T03:29:10.030Z,67.58
2023-01-04T03:30:10.290Z,67.38
2023-01-04T03:31:10.676Z,67.59
2023-01-04T03:32:10.915Z,67.20
2023-01-04T03:33:11.256Z,67.19
2023-01-04T03:34:11.544Z,67.58
2023-01-04T03:35:11.787Z,67.59
2023-01-04T03:36:12.106Z,67.20
2023-01-04T03:37:12.357Z,67.29
2023-01-04T03:38:12.682Z,66.21
2023-01-04T03:39:12.955Z,67.20
2023-01-04T03:40:13.241Z,67.20
2023-01-04T03:41:13.505Z,65.84
2023-01-04T03:42:13.745Z,66.02
2023-01-04T03:43:14.084Z,66.02
2023-01-04T03:44:14.384Z,66.22
2023-01-04T03:45:14.661Z,66.02
2023-01-04T03:46:15.029Z,66.02
2023-01-04T03:47:15.274Z,65.67
2023-01-04T03:48:15.477Z,65.67
2023-01-04T03:49:15.743Z,65.80
2023-01-04T03:50:16.013Z,66.20
2023-01-04T03:51:16.306Z,66.19
2023-01-04T03:52:16.579Z,66.09
2023-01-04T03:53:16.855Z,66.20
2023-01-04T03:54:17.172Z,67.59
2023-01-04T03:55:17.427Z,66.20
2023-01-04T03:56:17.737Z,66.20
2023-01-04T03:57:18.020Z,67.32
2023-01-04T03:58:18.317Z,67.33
2023-01-04T03:59:18.616Z,67.43
2023-01-04T04:00:18.956Z,67.43
2023-01-04T04:01:19.341Z,67.22
2023-01-04T04:02:19.663Z,66.24
2023-01-04T04:03:19.787Z,66.09
2023-01-04T04:04:20.124Z,66.09
2023-01-04T04:05:20.305Z,67.28
2023-01-04T04:06:20.633Z,66.09
2023-01-04T04:07:20.922Z,65.99
2023-01-04T04:08:21.182Z,66.36
2023-01-04T04:09:21.464Z,65.99
2023-01-04T04:10:21.725Z,66.09
2023-01-04T04:11:22.009Z,66.09
2023-01-04T04:12:22.282Z,66.09
2023-01-04T04:13:22.541Z,65.89
2023-01-04T04:14:22.830Z,66.09
2023-01-04T04:15:23.103Z,65.99
2023-01-04T04:16:23.392Z,66.09
2023-01-04T04:17:23.665Z,66.30
2023-01-04T04:18:23.960Z,66.40
2023-01-04T04:19:24.257Z,66.50
2023-01-04T04:20:24.563Z,66.50
2023-01-04T04:21:24.863Z,66.41
2023-01-04T04:22:25.184Z,66.41
2023-01-04T04:23:25.417Z,67.19
2023-01-04T04:24:25.773Z,66.50
2023-01-04T04:25:26.017Z,67.29
2023-01-04T04:26:26.302Z,67.19
2023-01-04T04:27:26.593Z,67.29
2023-01-04T04:28:26.893Z,68.07
2023-01-04T04:29:27.213Z,67.97
2023-01-04T04:30:27.465Z,67.97
2023-01-04T04:31:27.807Z,62.50
2023-01-04T04:32:28.065Z,62.60
2023-01-04T04:33:28.366Z,62.50
2023-01-04T04:34:28.688Z,62.60
2023-01-04T04:35:28.990Z,62.60
2023-01-04T04:36:29.249Z,62.50
2023-01-04T04:37:29.537Z,62.70
2023-01-04T04:38:29.855Z,62.70
2023-01-04T04:39:30.135Z,62.70
2023-01-04T04:40:30.401Z,62.70
2023-01-04T04:41:30.662Z,63.29
2023-01-04T04:42:30.981Z,63.48
2023-01-04T04:43:31.255Z,63.48
2023-01-04T04:44:31.517Z,63.38
2023-01-04T04:45:31.815Z,63.28
2023-01-04T04:46:32.124Z,62.70
2023-01-04T04:47:32.375Z,62.79
2023-01-04T04:48:32.691Z,62.60
2023-01-04T04:49:32.940Z,63.29
2023-01-04T04:50:33.215Z,62.60
2023-01-04T04:51:33.480Z,63.29
2023-01-04T04:52:33.768Z,63.39
2023-01-04T04:53:34.076Z,62.89
2023-01-04T04:54:34.414Z,62.51
2023-01-04T04:55:34.695Z,68.36
2023-01-04T04:56:34.965Z,67.98
2023-01-04T04:57:35.276Z,68.37
2023-01-04T04:58:35.529Z,68.37
2023-01-04T04:59:35.835Z,68.47
2023-01-04T05:00:36.174Z,67.98
2023-01-04T05:01:36.414Z,68.08
2023-01-04T05:02:36.749Z,68.08
2023-01-04T05:03:36.945Z,67.60
2023-01-04T05:04:37.239Z,67.68
2023-01-04T05:05:37.557Z,67.68
2023-01-04T05:06:37.849Z,67.97
2023-01-04T05:07:38.149Z,68.08
2023-01-04T05:08:38.467Z,68.08
2023-01-04T05:09:38.721Z,68.08
2023-01-04T05:10:39.047Z,67.98
2023-01-04T05:11:39.302Z,67.69
2023-01-04T05:12:39.582Z,67.21
2023-01-04T05:13:39.889Z,67.59
2023-01-04T05:14:40.223Z,67.69
2023-01-04T05:15:40.475Z,67.69
2023-01-04T05:16:40.872Z,67.59
2023-01-04T05:17:41.054Z,67.59
2023-01-04T05:18:41.365Z,67.59
2023-01-04T05:19:41.639Z,67.19
2023-01-04T05:20:41.915Z,67.25
2023-01-04T05:21:42.187Z,67.25
2023-01-04T05:22:42.458Z,67.64
2023-01-04T05:23:42.727Z,67.24
2023-01-04T05:24:42.989Z,66.83
2023-01-04T05:25:43.259Z,67.25
2023-01-04T05:26:43.550Z,67.24
2023-01-04T05:27:43.831Z,66.82
2023-01-04T05:28:47.098Z,66.85
2023-01-04T05:29:45.429Z,66.85
2023-01-04T05:30:44.732Z,66.82
2023-01-04T05:31:45.091Z,66.43
2023-01-04T05:32:45.378Z,66.42
2023-01-04T05:33:45.659Z,66.82
2023-01-04T05:34:45.902Z,66.43
2023-01-04T05:35:46.246Z,66.02
2023-01-04T05:36:46.512Z,66.43
2023-01-04T05:37:46.754Z,66.82
2023-01-04T05:38:47.078Z,66.02
2023-01-04T05:39:47.374Z,66.02
2023-01-04T05:40:47.649Z,66.11
2023-01-04T05:41:47.906Z,66.11
2023-01-04T05:42:48.228Z,66.11
2023-01-04T05:43:48.487Z,65.71
2023-01-04T05:44:48.847Z,65.81
2023-01-04T05:45:49.219Z,66.02
2023-01-04T05:46:49.387Z,66.42
2023-01-04T05:47:49.630Z,66.11
2023-01-04T05:48:49.950Z,66.11
2023-01-04T05:49:50.296Z,66.11
2023-01-04T05:50:50.553Z,66.11
2023-01-04T05:51:50.841Z,66.42
2023-01-04T05:52:51.156Z,66.43
2023-01-04T05:53:51.469Z,66.53
2023-01-04T05:54:51.788Z,66.42
2023-01-04T05:55:52.045Z,66.43
2023-01-04T05:56:52.368Z,67.24
2023-01-04T05:57:52.640Z,66.93
2023-01-04T05:58:52.890Z,66.83
2023-01-04T05:59:53.246Z,66.82
2023-01-04T06:00:53.482Z,66.83
2023-01-04T06:01:53.897Z,66.94
2023-01-04T06:02:54.144Z,66.53
2023-01-04T06:03:54.358Z,66.83
2023-01-04T06:04:58.700Z,66.94
2023-01-04T06:05:55.794Z,66.94
2023-01-04T06:06:55.129Z,67.24
2023-01-04T06:07:55.363Z,66.93
2023-01-04T06:08:55.672Z,66.94
2023-01-04T06:09:56.017Z,66.52
2023-01-04T06:10:56.296Z,66.93
2023-01-04T06:11:56.533Z,66.94
2023-01-04T06:12:56.857Z,66.82
2023-01-04T06:13:57.116Z,66.58
2023-01-04T06:14:57.403Z,66.59
2023-01-04T06:15:57.728Z,66.89
2023-01-04T06:16:57.978Z,66.89
2023-01-04T06:17:58.289Z,67.33
2023-01-04T06:18:58.578Z,66.90
2023-01-04T06:19:58.882Z,66.94
2023-01-04T06:20:59.160Z,66.90
2023-01-04T06:21:59.438Z,66.85
2023-01-04T06:22:59.692Z,66.80
2023-01-04T06:24:00.024Z,66.80
2023-01-04T06:25:00.299Z,66.55
2023-01-04T06:26:00.533Z,66.80
2023-01-04T06:27:00.863Z,66.90
2023-01-04T06:28:01.113Z,66.85
2023-01-04T06:29:01.402Z,66.46
2023-01-04T06:30:01.722Z,66.86
2023-01-04T06:31:02.038Z,66.99
2023-01-04T06:32:02.299Z,66.99
2023-01-04T06:33:02.644Z,67.19
2023-01-04T06:34:02.864Z,67.20
2023-01-04T06:35:03.199Z,66.86
2023-01-04T06:36:03.469Z,66.86
2023-01-04T06:37:03.713Z,66.66
2023-01-04T06:38:04.015Z,66.66
2023-01-04T06:39:04.319Z,66.46
2023-01-04T06:40:04.740Z,66.27
2023-01-04T06:41:04.959Z,66.21
2023-01-04T06:42:06.823Z,66.21
2023-01-04T06:43:05.439Z,66.22
2023-01-04T06:44:05.755Z,66.03
2023-01-04T06:45:06.022Z,66.21
2023-01-04T06:46:06.338Z,66.61
2023-01-04T06:47:06.584Z,66.61
2023-01-04T06:48:09.239Z,66.21
2023-01-04T06:49:07.318Z,66.42
2023-01-04T06:50:07.496Z,66.61
2023-01-04T06:51:07.761Z,66.61
2023-01-04T06:52:08.033Z,66.85
2023-01-04T06:53:08.314Z,66.85
2023-01-04T06:54:08.594Z,66.61
2023-01-04T06:55:08.911Z,66.43
2023-01-04T06:56:09.168Z,66.43
2023-01-04T06:57:09.601Z,66.63
2023-01-04T06:58:09.746Z,66.80
2023-01-04T06:59:09.987Z,66.80
2023-01-04T07:00:10.337Z,66.89
2023-01-04T07:01:10.632Z,66.80
2023-01-04T07:02:10.884Z,66.63
2023-01-04T07:03:13.579Z,66.80
2023-01-04T07:04:11.301Z,66.63
2023-01-04T07:05:12.478Z,66.99
2023-01-04T07:06:11.967Z,66.43
2023-01-04T07:07:12.256Z,66.43
2023-01-04T07:08:12.499Z,66.63
2023-01-04T07:09:12.801Z,66.24
2023-01-04T07:10:13.202Z,66.63
2023-01-04T07:11:13.350Z,66.63
2023-01-04T07:12:13.628Z,66.63
2023-01-04T07:13:13.856Z,66.63
2023-01-04T07:14:14.137Z,66.80
2023-01-04T07:15:38.635Z,67.19
2023-01-04T07:16:15.775Z,67.19
2023-01-04T07:17:15.064Z,66.99
2023-01-04T07:18:15.326Z,66.63
2023-01-04T07:19:15.661Z,66.80
2023-01-04T07:20:15.952Z,66.63
2023-01-04T07:21:16.209Z,66.80
2023-01-04T07:22:16.555Z,66.80
2023-01-04T07:23:16.837Z,66.99
2023-01-04T07:24:17.129Z,66.99
2023-01-04T07:25:17.426Z,66.99
2023-01-04T07:26:17.726Z,67.19
2023-01-04T07:27:17.984Z,66.99
2023-01-04T07:28:18.313Z,66.99
2023-01-04T07:29:18.597Z,66.99
2023-01-04T07:30:18.914Z,67.21
2023-01-04T07:31:19.239Z,66.99
2023-01-04T07:32:19.405Z,67.19
2023-01-04T07:33:19.745Z,67.41
2023-01-04T07:34:20.066Z,67.19
2023-01-04T07:35:20.382Z,66.99
2023-01-04T07:36:20.673Z,67.10
2023-01-04T07:37:21.011Z,66.89
2023-01-04T07:38:21.293Z,66.89
2023-01-04T07:39:21.559Z,66.89
2023-01-04T07:40:21.881Z,66.89
2023-01-04T07:41:22.187Z,67.10
2023-01-04T07:42:22.509Z,67.41
2023-01-04T07:43:27.674Z,67.19
2023-01-04T07:44:24.113Z,66.99
2023-01-04T07:45:23.362Z,66.89
2023-01-04T07:46:23.707Z,66.80
2023-01-04T07:47:23.933Z,62.50
2023-01-04T07:48:24.376Z,62.50
2023-01-04T07:49:24.493Z,62.50
2023-01-04T07:50:24.813Z,62.50
2023-01-04T07:51:25.131Z,62.50
2023-01-04T07:52:25.442Z,62.50
2023-01-04T07:53:25.760Z,62.50
2023-01-04T07:54:26.089Z,62.50
2023-01-04T07:55:26.348Z,62.50
2023-01-04T07:56:26.664Z,62.50
2023-01-04T07:57:27.012Z,62.50
2023-01-04T07:58:27.271Z,62.50
2023-01-04T07:59:27.608Z,67.38
2023-01-04T08:00:27.961Z,67.38
2023-01-04T08:01:28.236Z,67.19
2023-01-04T08:02:28.535Z,67.19
2023-01-04T08:03:28.706Z,67.19
2023-01-04T08:04:34.671Z,66.89
2023-01-04T08:05:30.370Z,66.86
2023-01-04T08:06:29.616Z,66.86
2023-01-04T08:07:29.948Z,66.56
2023-01-04T08:08:30.219Z,66.56
2023-01-04T08:09:30.633Z,67.25
2023-01-04T08:10:30.902Z,66.86
2023-01-04T08:11:31.272Z,66.46
2023-01-04T08:12:31.587Z,66.55
2023-01-04T08:13:31.885Z,66.41
2023-01-04T08:14:32.255Z,65.87
2023-01-04T08:15:32.436Z,65.88
2023-01-04T08:16:32.882Z,65.87
2023-01-04T08:17:33.081Z,65.49
2023-01-04T08:18:33.430Z,65.67
2023-01-04T08:19:33.737Z,65.59
2023-01-04T08:20:34.030Z,65.77
2023-01-04T08:21:34.361Z,65.98
2023-01-04T08:22:34.717Z,66.08
2023-01-04T08:23:35.002Z,65.88
2023-01-04T08:24:35.362Z,65.98
2023-01-04T08:25:35.660Z,65.75
2023-01-04T08:26:36.004Z,65.95
2023-01-04T08:27:36.288Z,66.05
2023-01-04T08:28:36.639Z,66.05
2023-01-04T08:29:36.943Z,66.15
2023-01-04T08:30:37.268Z,65.95
2023-01-04T08:31:37.642Z,65.95
2023-01-04T08:32:37.809Z,66.15
2023-01-04T08:33:38.184Z,66.31
2023-01-04T08:34:38.501Z,66.41
2023-01-04T08:35:38.808Z,66.05
2023-01-04T08:36:39.120Z,65.95
2023-01-04T08:37:39.405Z,66.15
2023-01-04T08:39:45.342Z,66.05
2023-01-04T08:40:59.874Z,66.15
2023-01-04T08:41:58.284Z,66.21
2023-01-04T08:42:42.041Z,65.65
2023-01-04T08:43:41.277Z,65.65
2023-01-04T08:44:41.581Z,65.55
2023-01-04T08:45:41.901Z,65.62
2023-01-04T08:46:42.376Z,65.82
2023-01-04T08:47:42.619Z,65.82
2023-01-04T08:48:42.800Z,65.82
2023-01-04T08:49:43.149Z,66.06
2023-01-04T08:50:43.442Z,65.66
2023-01-04T08:51:43.797Z,66.06
2023-01-04T08:52:44.134Z,65.66
2023-01-04T08:53:44.482Z,65.86
2023-01-04T08:54:44.687Z,65.96
2023-01-04T08:55:44.971Z,65.82
2023-01-04T08:56:45.337Z,65.82
2023-01-04T08:57:45.650Z,65.63
2023-01-04T08:58:45.976Z,65.63
2023-01-04T08:59:46.328Z,64.89
2023-01-04T09:00:46.602Z,64.89
2023-01-04T09:01:47.183Z,64.89
2023-01-04T09:02:47.368Z,64.87
2023-01-04T09:03:47.584Z,64.84
2023-01-04T09:04:48.105Z,64.84
2023-01-04T09:05:48.252Z,64.86
2023-01-04T09:06:48.580Z,64.84
2023-01-04T09:07:49.152Z,64.84
2023-01-04T09:08:49.139Z,64.06
2023-01-04T09:09:49.535Z,64.06
2023-01-04T09:10:49.804Z,64.56
2023-01-04T09:11:50.159Z,64.06
2023-01-04T09:12:50.444Z,64.75
2023-01-04T09:13:50.762Z,64.65
2023-01-04T09:14:51.130Z,64.07
2023-01-04T09:15:51.518Z,64.06
2023-01-04T09:16:51.730Z,64.45
2023-01-04T09:18:29.222Z,64.45
2023-01-04T09:18:53.269Z,64.45
2023-01-04T09:19:52.511Z,64.06
2023-01-04T09:20:59.824Z,64.07
2023-01-04T09:21:53.143Z,64.46
2023-01-04T09:22:53.499Z,64.45
2023-01-04T09:23:53.680Z,64.65
2023-01-04T09:24:53.931Z,64.45
2023-01-04T09:25:54.241Z,64.65
2023-01-04T09:26:54.570Z,64.65
2023-01-04T09:27:54.859Z,64.45
2023-01-04T09:28:55.212Z,64.23
2023-01-04T09:29:55.567Z,64.55
2023-01-04T09:30:55.903Z,64.55
2023-01-04T09:32:03.278Z,64.45
2023-01-04T09:32:56.480Z,64.45
2023-01-04T09:34:14.130Z,64.10
2023-01-04T09:34:58.107Z,64.21
2023-01-04T09:35:57.366Z,64.11
2023-01-04T09:36:57.671Z,62.92
2023-01-04T09:37:58.018Z,64.10
2023-01-04T09:38:58.352Z,62.92
2023-01-04T09:39:58.709Z,62.92
2023-01-04T09:40:58.869Z,62.92
2023-01-04T09:41:59.275Z,62.92
2023-01-04T09:43:20.872Z,62.62
2023-01-04T09:44:00.843Z,62.60
2023-01-04T09:46:01.367Z,62.50
2023-01-04T09:47:00.730Z,62.50
2023-01-04T09:48:01.000Z,62.70
2023-01-04T09:49:01.295Z,62.51
2023-01-04T09:50:01.569Z,62.56
2023-01-04T09:51:01.738Z,62.56
2023-01-04T09:52:02.070Z,63.13
2023-01-04T09:53:02.446Z,63.53
2023-01-04T09:54:02.757Z,63.53
2023-01-04T09:55:38.021Z,63.43
2023-01-04T09:56:04.362Z,63.33
2023-01-04T09:57:03.590Z,63.33
2023-01-04T09:58:03.955Z,63.34
2023-01-04T09:59:04.261Z,63.43
2023-01-04T10:00:04.660Z,62.94
2023-01-04T10:01:05.061Z,62.60
2023-01-04T10:02:05.319Z,62.50
2023-01-04T10:03:12.664Z,62.94
2023-01-04T10:04:05.726Z,62.94
2023-01-04T10:05:06.079Z,62.70
2023-01-04T10:06:06.354Z,63.04
2023-01-04T10:07:06.684Z,62.55
2023-01-04T10:08:07.060Z,62.54
2023-01-04T10:09:07.351Z,62.70
2023-01-04T10:10:07.702Z,62.70
2023-01-04T10:11:08.011Z,62.70
2023-01-04T10:12:08.273Z,62.70
2023-01-04T10:13:08.574Z,62.50
2023-01-04T10:14:08.894Z,62.70
2023-01-04T10:15:09.270Z,62.50
2023-01-04T10:16:09.616Z,62.60
2023-01-04T10:17:13.627Z,62.60
2023-01-04T10:19:23.880Z,62.60
2023-01-04T10:21:28.230Z,62.70
2023-01-04T10:22:12.494Z,62.60
2023-01-04T10:23:11.772Z,62.55
2023-01-04T10:24:12.135Z,62.55
2023-01-04T10:25:12.342Z,62.55
2023-01-04T10:26:12.533Z,54.75
2023-01-04T10:27:12.820Z,54.55
2023-01-04T10:28:13.114Z,54.54
2023-01-04T10:29:13.443Z,62.55
2023-01-04T10:30:13.820Z,54.35
2023-01-04T10:31:38.630Z,54.35
2023-01-04T10:32:15.378Z,53.96
2023-01-04T10:33:14.664Z,54.05
2023-01-04T10:34:18.807Z,54.30
2023-01-04T10:35:15.329Z,54.30
2023-01-04T10:36:15.623Z,54.35
2023-01-04T10:37:16.000Z,53.96
2023-01-04T10:38:16.150Z,53.96
2023-01-04T10:39:16.514Z,54.35
2023-01-04T10:40:16.878Z,54.35
2023-01-04T10:41:17.021Z,54.64
2023-01-04T10:42:17.357Z,62.55
2023-01-04T10:43:17.709Z,62.79
2023-01-04T10:44:17.925Z,62.99
2023-01-04T10:45:18.224Z,62.99
2023-01-04T10:46:18.578Z,62.90
2023-01-04T10:47:18.862Z,62.79
2023-01-04T10:48:19.209Z,62.50
2023-01-04T10:49:19.406Z,62.51
2023-01-04T10:50:19.758Z,62.51
2023-01-04T10:51:19.991Z,62.56
2023-01-04T10:52:20.292Z,64.07
2023-01-04T10:53:20.645Z,64.07
2023-01-04T10:54:20.850Z,64.06
2023-01-04T10:55:21.162Z,64.07
2023-01-04T10:56:26.298Z,64.45
2023-01-04T10:57:22.805Z,64.07
2023-01-04T10:58:22.171Z,64.45
2023-01-04T10:59:22.415Z,64.46
2023-01-04T11:00:22.579Z,65.62
2023-01-04T11:01:22.999Z,64.46
2023-01-04T11:02:23.343Z,64.55
2023-01-04T11:03:23.644Z,64.46
2023-01-04T11:04:23.758Z,64.55
2023-01-04T11:05:24.076Z,64.55
2023-01-04T11:06:24.387Z,64.45
2023-01-04T11:07:24.710Z,64.45
2023-01-04T11:08:25.009Z,64.55
2023-01-04T11:09:25.865Z,64.45
2023-01-04T11:10:25.577Z,64.06
2023-01-04T11:11:25.859Z,64.17
2023-01-04T11:12:26.203Z,64.17
2023-01-04T11:13:26.518Z,64.45
2023-01-04T11:14:30.555Z,64.55
2023-01-04T11:15:28.140Z,64.46
2023-01-04T11:16:27.432Z,64.56
2023-01-04T11:17:27.717Z,64.46
2023-01-04T11:18:28.042Z,64.07
2023-01-04T11:19:28.361Z,64.45
2023-01-04T11:20:31.598Z,64.27
2023-01-04T11:21:30.018Z,64.06
2023-01-04T11:22:29.392Z,64.17
2023-01-04T11:23:29.592Z,64.45
2023-01-04T11:24:32.626Z,65.82
2023-01-04T11:25:35.449Z,65.72
2023-01-04T11:26:31.535Z,66.22
2023-01-04T11:27:30.772Z,65.82
2023-01-04T11:28:31.111Z,65.82
2023-01-04T11:29:31.432Z,66.22
2023-01-04T11:30:31.807Z,65.62
2023-01-04T11:31:32.032Z,66.23
2023-01-04T11:32:32.284Z,66.33
2023-01-04T11:33:32.501Z,66.22
2023-01-04T11:34:32.847Z,65.62
2023-01-04T11:35:36.454Z,65.62
2023-01-04T11:36:34.467Z,66.22
2023-01-04T11:37:33.749Z,65.82
2023-01-04T11:38:34.064Z,65.72
2023-01-04T11:39:34.272Z,65.63
2023-01-04T11:40:34.608Z,66.09
2023-01-04T11:41:34.904Z,65.89
2023-01-04T11:42:35.311Z,65.89
2023-01-04T11:43:35.548Z,65.99
2023-01-04T11:44:35.757Z,65.69
2023-01-04T11:45:36.123Z,65.87
2023-01-04T11:46:36.332Z,65.83
2023-01-04T11:47:36.712Z,65.83
2023-01-04T11:48:36.884Z,65.64
2023-01-04T11:49:37.279Z,65.64
2023-01-04T11:50:37.500Z,65.83
2023-01-04T11:51:37.737Z,65.87
2023-01-04T11:52:38.094Z,65.62
2023-01-04T11:53:38.403Z,65.75
2023-01-04T11:54:38.747Z,65.84
2023-01-04T11:55:39.132Z,65.84
2023-01-04T11:56:39.295Z,65.84
2023-01-04T11:57:39.642Z,65.89
2023-01-04T11:58:39.980Z,65.94
2023-01-04T11:59:40.320Z,65.94
2023-01-04T12:00:40.561Z,65.62
2023-01-04T12:01:40.813Z,64.45
2023-01-04T12:03:42.353Z,64.16
2023-01-04T12:04:41.603Z,64.36
2023-01-04T12:05:41.972Z,64.36
2023-01-04T12:06:42.172Z,64.16
2023-01-04T12:07:42.521Z,64.06
2023-01-04T12:08:42.828Z,64.16
2023-01-04T12:09:43.154Z,64.16
2023-01-04T12:10:43.516Z,64.06
2023-01-04T12:11:43.850Z,64.45
2023-01-04T12:12:44.160Z,64.46
2023-01-04T12:13:44.466Z,64.14
2023-01-04T12:14:44.783Z,64.11
2023-01-04T12:15:45.124Z,64.16
2023-01-04T12:16:45.424Z,64.14
2023-01-04T12:17:45.775Z,64.53
2023-01-04T12:18:45.954Z,64.24
2023-01-04T12:19:46.316Z,64.63
2023-01-04T12:20:46.650Z,64.24
2023-01-04T12:21:47.008Z,64.26
2023-01-04T12:22:47.240Z,64.65
2023-01-04T12:23:47.593Z,65.63
2023-01-04T12:24:47.840Z,65.65
2023-01-04T12:25:48.043Z,65.64
2023-01-04T12:26:48.349Z,65.94
2023-01-04T12:27:48.726Z,66.26
2023-01-04T12:28:48.950Z,65.98
2023-01-04T12:29:49.260Z,65.78
2023-01-04T12:30:49.604Z,66.19
2023-01-04T12:31:49.939Z,66.28
2023-01-04T12:32:50.252Z,66.28
2023-01-04T12:33:50.560Z,66.28
2023-01-04T12:34:50.851Z,67.19
2023-01-04T12:35:51.153Z,67.27
2023-01-04T12:36:51.472Z,67.28
2023-01-04T12:37:51.755Z,67.28
2023-01-04T12:38:52.124Z,67.19
2023-01-04T12:39:52.423Z,67.28
2023-01-04T12:40:52.743Z,67.27
2023-01-04T12:41:53.085Z,67.58
2023-01-04T12:42:53.373Z,67.79
2023-01-04T12:43:53.683Z,67.58
2023-01-04T12:44:53.978Z,67.68
2023-01-04T12:45:54.352Z,67.58
2023-01-04T12:46:54.679Z,67.48
2023-01-04T12:47:54.913Z,67.43
2023-01-04T12:48:55.238Z,67.43
2023-01-04T12:49:55.554Z,66.21
2023-01-04T12:51:07.352Z,66.02
2023-01-04T12:52:20.800Z,65.62
2023-01-04T12:53:57.755Z,66.02
2023-01-04T12:54:57.007Z,66.02
2023-01-04T12:55:57.257Z,65.82
2023-01-04T12:56:57.549Z,65.62
2023-01-04T12:57:57.923Z,65.82
2023-01-04T12:59:24.784Z,65.82
2023-01-04T12:59:59.548Z,65.84
2023-01-04T13:00:58.885Z,65.84
2023-01-04T13:01:59.081Z,65.73